createdAt,value
2022-10-09T00:02:39.964Z,100933.78
2022-10-09T00:07:41.501Z,100930.75
2022-10-09T00:12:42.966Z,100936.56
2022-10-09T00:17:44.389Z,100941.66
2022-10-09T00:22:46.070Z,100938.50
2022-10-09T00:27:48.120Z,100943.72
2022-10-09T00:32:49.749Z,100943.94
2022-10-09T00:37:51.401Z,100951.75
2022-10-09T00:42:57.222Z,100957.34
2022-10-09T00:48:04.801Z,100958.84
2022-10-09T00:53:06.630Z,100950.41
2022-10-09T00:58:08.524Z,100964.31
2022-10-09T01:03:10.055Z,100963.16
2022-10-09T01:08:19.093Z,100967.03
2022-10-09T01:13:32.548Z,100974.19
2022-10-09T01:18:45.501Z,100976.75
2022-10-09T01:23:52.769Z,100984.88
2022-10-09T01:29:00.123Z,100978.44
2022-10-09T01:34:01.937Z,100984.69
2022-10-09T01:39:05.879Z,100979.66
2022-10-09T01:44:18.664Z,100994.97
2022-10-09T01:50:04.131Z,101002.81
2022-10-09T01:55:16.172Z,100996.78
2022-10-09T02:00:18.396Z,100998.31
2022-10-09T02:05:23.398Z,101009.00
2022-10-09T02:10:25.901Z,101011.59
2022-10-09T02:15:33.852Z,101022.63
2022-10-09T02:20:39.474Z,101019.88
2022-10-09T02:25:41.319Z,101029.91
2022-10-09T02:31:13.538Z,101036.69
2022-10-09T02:36:15.009Z,101042.09
2022-10-09T02:41:16.448Z,101049.41
2022-10-09T02:46:18.855Z,101051.44
2022-10-09T02:51:20.336Z,101063.88
2022-10-09T02:56:25.257Z,101057.69
2022-10-09T03:01:26.755Z,101069.19
2022-10-09T03:06:29.156Z,101074.69
2022-10-09T03:11:30.618Z,101075.84
2022-10-09T03:16:32.154Z,101074.75
2022-10-09T03:21:33.638Z,101072.97
2022-10-09T03:26:35.046Z,101090.50
2022-10-09T03:31:53.297Z,101088.63
2022-10-09T03:36:54.962Z,101099.88
2022-10-09T03:41:56.456Z,101103.72
2022-10-09T03:46:57.891Z,101111.25
2022-10-09T03:51:59.452Z,101110.31
2022-10-09T03:57:00.906Z,101116.50
2022-10-09T04:02:02.358Z,101130.75
2022-10-09T04:07:03.784Z,101127.63
2022-10-09T04:12:05.283Z,101138.78
2022-10-09T04:17:07.215Z,101141.97
2022-10-09T04:22:08.667Z,101136.91
2022-10-09T04:27:10.162Z,101140.56
2022-10-09T04:32:11.625Z,101147.91
2022-10-09T04:37:13.041Z,101147.75
2022-10-09T04:42:14.533Z,101137.13
2022-10-09T04:47:15.989Z,101150.06
2022-10-09T04:52:17.450Z,101153.38
2022-10-09T04:57:18.870Z,101147.69
2022-10-09T05:02:20.322Z,101156.25
2022-10-09T05:07:21.765Z,101164.91
2022-10-09T05:12:23.301Z,101170.28
2022-10-09T05:17:24.889Z,101179.72
2022-10-09T05:22:26.366Z,101183.13
2022-10-09T05:27:27.795Z,101181.81
2022-10-09T05:32:29.194Z,101180.22
2022-10-09T05:37:30.598Z,101195.56
2022-10-09T05:42:32.017Z,101190.16
2022-10-09T05:47:33.430Z,101194.69
2022-10-09T05:52:38.615Z,101200.03
2022-10-09T05:57:40.056Z,101207.66
2022-10-09T06:02:41.597Z,101216.72
2022-10-09T06:07:43.100Z,101217.91
2022-10-09T06:12:44.496Z,101223.31
2022-10-09T06:17:45.968Z,101221.97
2022-10-09T06:22:47.583Z,101233.81
2022-10-09T06:27:49.291Z,101246.88
2022-10-09T06:32:51.147Z,101250.25
2022-10-09T06:37:53.072Z,101251.31
2022-10-09T06:42:54.518Z,101252.19
2022-10-09T06:47:56.144Z,101258.47
2022-10-09T06:52:57.560Z,101266.78
2022-10-09T06:57:59.566Z,101272.28
2022-10-09T07:03:01.071Z,101272.88
2022-10-09T07:08:02.560Z,101280.50
2022-10-09T07:13:04.013Z,101293.03
2022-10-09T07:18:05.656Z,101292.56
2022-10-09T07:23:07.144Z,101294.09
2022-10-09T07:28:08.623Z,101291.78
2022-10-09T07:33:10.165Z,101296.09
2022-10-09T07:38:11.565Z,101301.81
2022-10-09T07:43:12.977Z,101303.88
2022-10-09T07:48:14.462Z,101309.91
2022-10-09T07:53:15.862Z,101316.22
2022-10-09T07:58:17.575Z,101320.19
2022-10-09T08:03:19.013Z,101315.31
2022-10-09T08:08:20.431Z,101317.84
2022-10-09T08:13:22.146Z,101320.41
2022-10-09T08:18:23.558Z,101312.22
2022-10-09T08:23:25.101Z,101323.25
2022-10-09T08:28:26.715Z,101319.72
2022-10-09T08:33:28.199Z,101328.63
2022-10-09T08:38:46.761Z,101323.47
2022-10-09T08:43:56.149Z,101330.28
2022-10-09T08:49:00.605Z,101338.97
2022-10-09T08:54:12.575Z,101337.34
2022-10-09T08:59:14.181Z,101342.66
2022-10-09T09:04:34.742Z,101344.28
2022-10-09T09:09:46.974Z,101338.31
2022-10-09T09:15:10.092Z,101332.94
2022-10-09T09:20:31.379Z,101330.69
2022-10-09T09:25:35.990Z,101326.41
2022-10-09T09:30:51.957Z,101329.47
2022-10-09T09:36:09.090Z,101332.19
2022-10-09T09:41:10.503Z,101324.03
2022-10-09T09:46:17.614Z,101325.59
2022-10-09T09:51:29.661Z,101332.78
2022-10-09T09:57:07.050Z,101325.19
2022-10-09T10:02:12.695Z,101333.84
2022-10-09T10:07:14.197Z,101330.34
2022-10-09T10:12:18.245Z,101326.22
2022-10-09T10:17:28.364Z,101310.00
2022-10-09T10:22:36.027Z,101319.16
2022-10-09T10:27:41.810Z,101319.44
2022-10-09T10:33:03.939Z,101315.66
2022-10-09T10:38:29.704Z,101318.44
2022-10-09T10:43:35.127Z,101314.22
2022-10-09T10:48:47.087Z,101314.97
2022-10-09T10:54:05.454Z,101323.38
2022-10-09T10:59:33.340Z,101317.59
2022-10-09T11:04:49.995Z,101313.75
2022-10-09T11:10:19.874Z,101315.31
2022-10-09T11:15:26.377Z,101322.78
2022-10-09T11:20:39.447Z,101311.03
2022-10-09T11:25:58.969Z,101316.97
2022-10-09T11:31:16.924Z,101310.13
2022-10-09T11:36:39.988Z,101310.66
2022-10-09T11:41:45.234Z,101297.19
2022-10-09T11:47:01.597Z,101301.38
2022-10-09T11:52:16.998Z,101300.31
2022-10-09T11:57:28.418Z,101291.38
2022-10-09T12:02:31.297Z,101282.66
2022-10-09T12:07:36.922Z,101284.94
2022-10-09T12:12:38.855Z,101283.25
2022-10-09T12:17:48.627Z,101270.72
2022-10-09T12:23:21.271Z,101275.66
2022-10-09T12:28:39.218Z,101268.25
2022-10-09T12:33:45.719Z,101264.28
2022-10-09T12:38:47.172Z,101254.78
2022-10-09T12:43:50.998Z,101250.19
2022-10-09T12:48:53.119Z,101242.63
2022-10-09T12:53:55.087Z,101241.06
2022-10-09T12:58:58.545Z,101235.44
2022-10-09T13:04:04.195Z,101231.03
2022-10-09T13:09:08.436Z,101238.44
2022-10-09T13:14:26.637Z,101236.31
2022-10-09T13:19:31.219Z,101228.56
2022-10-09T13:24:32.747Z,101225.31
2022-10-09T13:29:34.446Z,101220.94
2022-10-09T13:34:35.912Z,101220.19
2022-10-09T13:39:37.599Z,101213.16
2022-10-09T13:44:39.015Z,101214.19
2022-10-09T13:49:40.555Z,101215.53
2022-10-09T13:54:42.437Z,101208.00
2022-10-09T13:59:43.909Z,101208.16
2022-10-09T14:04:45.708Z,101203.56
2022-10-09T14:09:47.214Z,101200.50
2022-10-09T14:14:48.642Z,101198.50
2022-10-09T14:19:50.620Z,101198.25
2022-10-09T14:24:52.062Z,101193.06
2022-10-09T14:29:55.393Z,101187.53
2022-10-09T14:34:59.003Z,101187.47
2022-10-09T14:40:00.413Z,101182.53
2022-10-09T14:45:01.943Z,101181.31
2022-10-09T14:50:03.947Z,101169.75
2022-10-09T14:55:05.797Z,101169.13
2022-10-09T15:00:08.787Z,101162.09
2022-10-09T15:05:10.571Z,101163.72
2022-10-09T15:10:12.259Z,101160.91
2022-10-09T15:15:13.812Z,101163.41
2022-10-09T15:20:15.376Z,101158.97
2022-10-09T15:25:16.872Z,101159.72
2022-10-09T15:30:18.307Z,101143.53
2022-10-09T15:35:20.167Z,101143.66
2022-10-09T15:40:21.629Z,101149.59
2022-10-09T15:45:23.050Z,101143.78
2022-10-09T15:50:24.453Z,101142.50
2022-10-09T15:55:25.860Z,101145.31
2022-10-09T16:00:27.256Z,101138.84
2022-10-09T16:05:28.661Z,101141.78
2022-10-09T16:10:30.065Z,101138.16
2022-10-09T16:15:31.465Z,101143.66
2022-10-09T16:20:37.502Z,101155.44
2022-10-09T16:25:40.162Z,101157.56
2022-10-09T16:30:44.304Z,101162.31
2022-10-09T16:35:46.381Z,101174.47
2022-10-09T16:41:01.494Z,101174.28
2022-10-09T16:46:23.367Z,101172.00
2022-10-09T16:51:31.527Z,101165.38
2022-10-09T16:56:36.208Z,101172.97
2022-10-09T17:01:43.521Z,101168.22
2022-10-09T17:06:46.432Z,101169.97
2022-10-09T17:11:48.360Z,101183.28
2022-10-09T17:16:49.848Z,101172.38
2022-10-09T17:21:51.260Z,101176.69
2022-10-09T17:26:53.076Z,101165.00
2022-10-09T17:31:54.559Z,101172.03
2022-10-09T17:36:56.551Z,101166.47
2022-10-09T17:41:58.033Z,101178.78
2022-10-09T17:47:00.810Z,101164.69
2022-10-09T17:52:02.291Z,101173.03
2022-10-09T17:57:06.846Z,101176.16
2022-10-09T18:02:08.326Z,101178.72
2022-10-09T18:07:09.760Z,101177.75
2022-10-09T18:12:11.180Z,101176.91
2022-10-09T18:17:12.633Z,101176.44
2022-10-09T18:22:14.052Z,101175.22
2022-10-09T18:27:15.489Z,101177.72
2022-10-09T18:32:16.900Z,101178.81
2022-10-09T18:37:19.965Z,101181.72
2022-10-09T18:42:21.387Z,101179.25
2022-10-09T18:47:28.290Z,101184.19
2022-10-09T18:52:30.201Z,101181.88
2022-10-09T18:57:33.288Z,101177.06
2022-10-09T19:02:34.753Z,101171.38
2022-10-09T19:07:36.287Z,101180.81
2022-10-09T19:12:37.809Z,101178.97
2022-10-09T19:17:39.237Z,101166.25
2022-10-09T19:22:40.730Z,101170.41
2022-10-09T19:27:42.140Z,101172.63
2022-10-09T19:32:43.596Z,101168.69
2022-10-09T19:37:45.049Z,101179.41
2022-10-09T19:42:46.488Z,101178.81
2022-10-09T19:47:52.300Z,101179.97
2022-10-09T19:52:56.229Z,101174.56
2022-10-09T19:57:57.969Z,101171.28
2022-10-09T20:02:59.423Z,101166.44
2022-10-09T20:08:01.318Z,101172.41
2022-10-09T20:13:03.322Z,101171.94
2022-10-09T20:18:04.785Z,101173.16
2022-10-09T20:23:06.205Z,101168.31
2022-10-09T20:28:07.623Z,101177.75
2022-10-09T20:33:09.389Z,101174.44
2022-10-09T20:38:10.824Z,101162.28
2022-10-09T20:43:13.340Z,101169.00
2022-10-09T20:48:14.833Z,101162.72
2022-10-09T20:53:16.855Z,101163.00
2022-10-09T20:58:19.354Z,101159.03
2022-10-09T21:03:20.873Z,101162.00
2022-10-09T21:08:22.411Z,101151.59
2022-10-09T21:13:23.966Z,101153.56
2022-10-09T21:18:25.444Z,101147.66
2022-10-09T21:23:26.853Z,101154.13
2022-10-09T21:28:28.639Z,101142.94
2022-10-09T21:33:30.074Z,101145.38
2022-10-09T21:38:33.002Z,101135.28
2022-10-09T21:43:34.452Z,101143.97
2022-10-09T21:48:35.866Z,101129.72
2022-10-09T21:53:37.484Z,101124.84
2022-10-09T21:58:40.301Z,101126.69
2022-10-09T22:03:41.872Z,101128.69
2022-10-09T22:08:43.683Z,101123.00
2022-10-09T22:13:45.153Z,101119.78
2022-10-09T22:18:46.576Z,101123.59
2022-10-09T22:23:48.248Z,101117.16
2022-10-09T22:28:50.360Z,101122.56
2022-10-09T22:34:00.396Z,101116.84
2022-10-09T22:39:05.092Z,101111.53
2022-10-09T22:44:07.996Z,101113.72
2022-10-09T22:49:12.511Z,101107.44
2022-10-09T22:54:14.086Z,101105.72
2022-10-09T22:59:17.941Z,101103.28
2022-10-09T23:04:21.541Z,101079.63
2022-10-09T23:09:25.578Z,101093.25
2022-10-09T23:14:27.662Z,101096.03
2022-10-09T23:19:29.064Z,101094.22
2022-10-09T23:24:30.503Z,101078.81
2022-10-09T23:29:31.953Z,101088.03
2022-10-09T23:34:33.395Z,101084.91
2022-10-09T23:39:34.939Z,101079.31
2022-10-09T23:44:36.349Z,101081.75
2022-10-09T23:49:37.844Z,101083.19
2022-10-09T23:54:39.251Z,101082.56
2022-10-09T23:59:41.627Z,101072.75
